Flight Track Log - Related Links

Times and Time Zones

All times are in EDT time to prevent confusion due to time zone crossing. See the N770PJ flight status page for this flight to view local times or setup timezone preferences in your user account.

Time Position Orientation Groundspeed Altitude Reporting Facility
EDT Latitude Longitude Course Direction KTS MPH feet Rate Location/Type
Sun 07:36:57 PM 29.5531 -98.4964 293° West 168 193 2,200  Level Houston Center
Sun 07:37:46 PM 29.5694 -98.5400 293° West 197 227 5,400 3,339 Climbing Houston Center
Sun 07:38:52 PM 29.5036 -98.5767 206° Southwest 275 316 8,600 2,707 Climbing Houston Center
Sun 07:39:08 PM 29.4875 -98.5775 183° South 264 304 9,100 2,077 Climbing Houston Center
Sun 07:40:10 PM 29.4036 -98.5986 192° South 306 352 11,300 2,758 Climbing Houston Center
Sun 07:41:12 PM 29.3125 -98.6447 204° Southwest 324 373 14,800 3,366 Climbing Houston Center
Sun 07:42:13 PM 29.2447 -98.6944 213° Southwest 285 328 18,200 2,732 Climbing Houston Center
Sun 07:43:15 PM 29.1653 -98.7494 211° Southwest 305 351 20,400 2,323 Climbing Houston Center
Sun 07:44:17 PM 29.0828 -98.7892 203° Southwest 321 369 23,000 2,274 Climbing Houston Center
Sun 07:45:19 PM 29.0014 -98.8275 202° Southwest 315 362 25,100 1,597 Climbing Houston Center
Sun 07:46:21 PM 28.9081 -98.8744 204° Southwest 341 392 26,300 1,220 Climbing Houston Center
Sun 07:47:22 PM 28.8142 -98.9189 203° Southwest 364 419 27,600 780 Climbing Houston Center
Sun 07:48:24 PM 28.7169 -98.9675 204° Southwest 383 441 27,900 242 Climbing Houston Center
Sun 07:49:26 PM 28.6064 -99.0181 202° Southwest 418 481 28,100 97 Climbing Houston Center
Sun 07:50:28 PM 28.4964 -99.0703 203° Southwest 427 491 28,100  Level Houston Center
Sun 07:51:30 PM 28.3853 -99.1242 203° Southwest 434 499 28,100 -48 Level Houston Center
Sun 07:52:32 PM 28.2725 -99.1772 203° Southwest 439 505 28,000 -48 Descending Houston Center
Sun 07:53:34 PM 28.1381 -99.2397 202° Southwest 437 503 28,000  Level Houston Center
Sun 07:54:35 PM 28.0261 -99.2933 203° Southwest 438 504 28,000  Level Houston Center
Sun 07:55:37 PM 27.9133 -99.3464 203° Southwest 441 507 28,000  Level Houston Center
Sun 07:56:39 PM 27.8000 -99.3997 203° Southwest 442 509 28,000  Level Houston Center
Sun 07:57:41 PM 27.6872 -99.4536 203° Southwest 444 511 28,000  Level Houston Center
Sun 07:58:43 PM 27.5739 -99.5064 202° Southwest 444 511 28,000  Level Houston Center
Sun 08:00:00 PM 27.4634 -99.5480 200° South  Level FlightAware Approximate
Sun 08:07:00 PM 26.8522 -99.7394 197° South  Level FlightAware Approximate
Sun 08:08:00 PM 26.7656 -99.7692 197° South  Level FlightAware Approximate
Sun 08:09:00 PM 26.6789 -99.7989 197° South  Level FlightAware Approximate
Sun 08:10:00 PM 26.5922 -99.8286 197° South  Level FlightAware Approximate
Sun 08:11:00 PM 26.5055 -99.8583 197° South  Level FlightAware Approximate
Sun 08:12:00 PM 26.4188 -99.8879 197° South  Level FlightAware Approximate
Sun 08:13:00 PM 26.3316 -99.9155 195° South  Level FlightAware Approximate
Sun 08:14:00 PM 26.2441 -99.9418 195° South  Level FlightAware Approximate
Sun 08:15:00 PM 26.1570 -99.9699 197° South  Level FlightAware Approximate
Sun 08:16:00 PM 26.0701 -99.9989 197° South  Level FlightAware Approximate
Sun 08:17:00 PM 25.9830 -100.0268 195° South  Level FlightAware Approximate
Sun 08:18:00 PM 25.8955 -100.0530 195° South  Level FlightAware Approximate
Sun 08:19:00 PM 25.8090 -100.0831 200° South  Level FlightAware Approximate
Sun 08:20:00 PM 25.7971 -100.1374 307° West  Level FlightAware Approximate
Sun 08:21:00 PM 25.8488 -100.2202 304° West  Level FlightAware Approximate
Sun 08:22:00 PM 25.8656 -100.2372 304° West  Level Estimated
Sun 08:23:00 PM 25.8656 -100.2372 304° West  Level Estimated
Sun 08:24:00 PM 25.8656 -100.2372 304° West  Level Estimated
Sun 08:25:00 PM 25.8656 -100.2372 304° West  Level Estimated
Sun 08:26:00 PM 25.8656 -100.2372 304° West  Level Estimated
Sun 08:27:00 PM 25.8656 -100.2372 304° West  Level Estimated
Sun 08:28:00 PM 25.8656 -100.2372 304° West  Level Estimated
Sun 08:29:00 PM 25.8656 -100.2372 304° West  Level Estimated
Sun 08:30:00 PM 25.8656 -100.2372 304° West  Level Estimated
Sun 08:31:00 PM 25.8656 -100.2372 304° West  Level Estimated
Sun 08:32:00 PM 25.8656 -100.2372 304° West  Level Estimated
Sun 08:33:00 PM 25.8656 -100.2372 304° West  Level Estimated
Sun 08:34:00 PM 25.8656 -100.2372 304° West  Level Estimated
Sun 08:35:00 PM 25.8656 -100.2372 304° West  Level Estimated
Sun 08:36:00 PM 25.8656 -100.2372 304° West  Level Estimated
Sun 08:37:00 PM 25.8656 -100.2372 304° West  Level Estimated
Sun 08:38:00 PM 25.8656 -100.2372 304° West  Level Estimated

Login

Don't have an account? Register now (free) for customized features, flight alerts, and more!